^^
Saratoga-Weather Station Historical Data
Daily Summary for July 20, 2020 Units:  Both    English   Metric
Daily Weekly Monthly Yearly Custom
  High: Low: Average:
Temperature: 81.3 °F /  27.4 °C 58.6 °F /  14.8 °C 69.6 °F /  20.9 °C
Dew Point: 58.6 °F /  14.8 °C 51.8 °F /  11 °C 55 °F /  12.8 °C
Humidity: 79% 43% 61%
Wind Speed: 7mph /  11.3km/h - 1.6mph /  2.5km/h
Wind Gust: 10mph /  16.1km/h - -
Wind- - SSW
Pressure: 30.1 in /  1020.3 hPa 30 in /  1017.3 hPa -
Precipitation: 0 in /  0.0 mm    
Historical Graphs
 
 
Tabular Data for July 20, 2020
Time Temperature Dew Point Pressure Wind Wind Speed Wind Gust Humidity Rainfall Rate (Hourly) solar
00:03 67.6 °F /  19.8 °C 53.2 °F /  11.8 °C 30.1in /  1020.0hPa SW 4mph /  6.4km/h 8mph /  12.9km/h 60% 0in /  0.0mm 0 W/m2
00:08 67.5 °F /  19.7 °C 53.6 °F /  12 °C 30.1in /  1020.0hPa West 0.9mph /  1.4km/h 4mph /  6.4km/h 61% 0in /  0.0mm 0 W/m2
00:13 67.3 °F /  19.6 °C 53.4 °F /  11.9 °C 30.1in /  1020.0hPa West 2mph /  3.2km/h 8mph /  12.9km/h 61% 0in /  0.0mm 0 W/m2
00:18 67.3 °F /  19.6 °C 53.4 °F /  11.9 °C 30.1in /  1020.0hPa West 0.9mph /  1.4km/h 4mph /  6.4km/h 61% 0in /  0.0mm 0 W/m2
00:23 67.1 °F /  19.5 °C 53.6 °F /  12 °C 30.1in /  1020.0hPa West 2mph /  3.2km/h 8mph /  12.9km/h 62% 0in /  0.0mm 0 W/m2
00:28 66.9 °F /  19.4 °C 53.4 °F /  11.9 °C 30.1in /  1020.0hPa West 2mph /  3.2km/h 4mph /  6.4km/h 62% 0in /  0.0mm 0 W/m2
00:33 66.7 °F /  19.3 °C 53.2 °F /  11.8 °C 30.1in /  1020.0hPa WNW 0.9mph /  1.4km/h 5mph /  8km/h 62% 0in /  0.0mm 0 W/m2
00:38 66.4 °F /  19.1 °C 53.4 °F /  11.9 °C 30.1in /  1020.0hPa Calm   1mph /  1.6km/h 63% 0in /  0.0mm 0 W/m2
00:43 66 °F /  18.9 °C 53.4 °F /  11.9 °C 30.1in /  1020.0hPa Calm   3mph /  4.8km/h 64% 0in /  0.0mm 0 W/m2
00:48 65.7 °F /  18.7 °C 53.6 °F /  12 °C 30.1in /  1020.0hPa West 0.9mph /  1.4km/h 1mph /  1.6km/h 65% 0in /  0.0mm 0 W/m2
00:53 64.9 °F /  18.3 °C 53.2 °F /  11.8 °C 30.1in /  1020.0hPa Calm   1mph /  1.6km/h 66% 0in /  0.0mm 0 W/m2
00:58 64.6 °F /  18.1 °C 53.4 °F /  11.9 °C 30.1in /  1020.0hPa NNW 0.9mph /  1.4km/h 1mph /  1.6km/h 67% 0in /  0.0mm 0 W/m2
01:03 64 °F /  17.8 °C 53.2 °F /  11.8 °C 30.1in /  1020.0hPa WSW 2mph /  3.2km/h 2mph /  3.2km/h 68% 0in /  0.0mm 0 W/m2
01:08 63.7 °F /  17.6 °C 53.2 °F /  11.8 °C 30.1in /  1020.0hPa WNW 0.9mph /  1.4km/h 4mph /  6.4km/h 69% 0in /  0.0mm 0 W/m2
01:13 63.7 °F /  17.6 °C 53.2 °F /  11.8 °C 30.1in /  1020.0hPa WNW 0.9mph /  1.4km/h 2mph /  3.2km/h 69% 0in /  0.0mm 0 W/m2
01:18 63.5 °F /  17.5 °C 53.6 °F /  12 °C 30.1in /  1019.6hPa WSW 0.9mph /  1.4km/h 4mph /  6.4km/h 70% 0in /  0.0mm 0 W/m2
01:23 63.3 °F /  17.4 °C 53.4 °F /  11.9 °C 30.1in /  1020.0hPa Calm   2mph /  3.2km/h 70% 0in /  0.0mm 0 W/m2
01:28 63.3 °F /  17.4 °C 53.4 °F /  11.9 °C 30.1in /  1019.6hPa WSW 0.9mph /  1.4km/h 3mph /  4.8km/h 70% 0in /  0.0mm 0 W/m2
01:33 63.1 °F /  17.3 °C 53.6 °F /  12 °C 30.1in /  1020.0hPa WSW 0.9mph /  1.4km/h 1mph /  1.6km/h 71% 0in /  0.0mm 0 W/m2
01:38 63 °F /  17.2 °C 53.4 °F /  11.9 °C 30.1in /  1020.0hPa Calm   1mph /  1.6km/h 71% 0in /  0.0mm 0 W/m2
01:43 62.8 °F /  17.1 °C 53.2 °F /  11.8 °C 30.1in /  1020.0hPa WSW 0.9mph /  1.4km/h 2mph /  3.2km/h 71% 0in /  0.0mm 0 W/m2
01:48 62.8 °F /  17.1 °C 53.2 °F /  11.8 °C 30.1in /  1019.6hPa NNW 0.9mph /  1.4km/h 2mph /  3.2km/h 71% 0in /  0.0mm 0 W/m2
01:54 63.1 °F /  17.3 °C 53.2 °F /  11.8 °C 30.1in /  1019.6hPa NW 2mph /  3.2km/h 2mph /  3.2km/h 70% 0in /  0.0mm 0 W/m2
01:59 63.3 °F /  17.4 °C 53.4 °F /  11.9 °C 30.1in /  1019.6hPa WNW 0.9mph /  1.4km/h 2mph /  3.2km/h 70% 0in /  0.0mm 0 W/m2
02:04 63.3 °F /  17.4 °C 53.4 °F /  11.9 °C 30.1in /  1019.6hPa Calm   2mph /  3.2km/h 70% 0in /  0.0mm 0 W/m2
02:09 63.1 °F /  17.3 °C 53.6 °F /  12 °C 30.1in /  1019.6hPa North 0.9mph /  1.4km/h 2mph /  3.2km/h 71% 0in /  0.0mm 0 W/m2
02:14 62.8 °F /  17.1 °C 53.2 °F /  11.8 °C 30.1in /  1019.6hPa Calm     71% 0in /  0.0mm 0 W/m2
02:19 62.2 °F /  16.8 °C 53.1 °F /  11.7 °C 30.1in /  1019.6hPa Calm   1mph /  1.6km/h 72% 0in /  0.0mm 0 W/m2
02:24 61.9 °F /  16.6 °C 53.1 °F /  11.7 °C 30.1in /  1019.6hPa Calm   1mph /  1.6km/h 73% 0in /  0.0mm 0 W/m2
02:29 61.5 °F /  16.4 °C 53.2 °F /  11.8 °C 30.1in /  1019.6hPa Calm   1mph /  1.6km/h 74% 0in /  0.0mm 0 W/m2
02:34 61.2 °F /  16.2 °C 53.2 °F /  11.8 °C 30.1in /  1019.6hPa Calm   2mph /  3.2km/h 75% 0in /  0.0mm 0 W/m2
02:39 60.8 °F /  16 °C 52.9 °F /  11.6 °C 30.1in /  1019.6hPa Calm     75% 0in /  0.0mm 0 W/m2
02:44 60.6 °F /  15.9 °C 53.1 °F /  11.7 °C 30.1in /  1019.6hPa Calm   2mph /  3.2km/h 76% 0in /  0.0mm 0 W/m2
02:49 60.4 °F /  15.8 °C 53.2 °F /  11.8 °C 30.1in /  1019.6hPa Calm     77% 0in /  0.0mm 0 W/m2
02:54 60.3 °F /  15.7 °C 53.1 °F /  11.7 °C 30.1in /  1019.6hPa North 0.9mph /  1.4km/h 1mph /  1.6km/h 77% 0in /  0.0mm 0 W/m2
02:59 60.1 °F /  15.6 °C 52.9 °F /  11.6 °C 30.1in /  1019.6hPa Calm     77% 0in /  0.0mm 0 W/m2
03:04 60.1 °F /  15.6 °C 52.9 °F /  11.6 °C 30.1in /  1019.6hPa Calm   1mph /  1.6km/h 77% 0in /  0.0mm 0 W/m2
03:09 59.7 °F /  15.4 °C 52.9 °F /  11.6 °C 30.1in /  1019.6hPa Calm   1mph /  1.6km/h 78% 0in /  0.0mm 0 W/m2
03:14 60.1 °F /  15.6 °C 52.9 °F /  11.6 °C 30.1in /  1019.6hPa SW 0.9mph /  1.4km/h 2mph /  3.2km/h 77% 0in /  0.0mm 0 W/m2
03:19 60.1 °F /  15.6 °C 52.9 °F /  11.6 °C 30.1in /  1019.6hPa Calm     77% 0in /  0.0mm 0 W/m2
03:24 59.9 °F /  15.5 °C 52.7 °F /  11.5 °C 30.1in /  1019.6hPa Calm   1mph /  1.6km/h 77% 0in /  0.0mm 0 W/m2
03:29 59.7 °F /  15.4 °C 52.5 °F /  11.4 °C 30.1in /  1019.6hPa SSW 0.9mph /  1.4km/h 1mph /  1.6km/h 77% 0in /  0.0mm 0 W/m2
03:34 59.5 °F /  15.3 °C 52.7 °F /  11.5 °C 30.1in /  1019.6hPa Calm   1mph /  1.6km/h 78% 0in /  0.0mm 0 W/m2
03:39 59.7 °F /  15.4 °C 52.5 °F /  11.4 °C 30.1in /  1019.6hPa Calm   2mph /  3.2km/h 77% 0in /  0.0mm 0 W/m2
03:44 60.1 °F /  15.6 °C 52.9 °F /  11.6 °C 30.1in /  1019.6hPa Calm   1mph /  1.6km/h 77% 0in /  0.0mm 0 W/m2
03:49 60.3 °F /  15.7 °C 52.7 °F /  11.5 °C 30.1in /  1019.6hPa NNE 0.9mph /  1.4km/h 3mph /  4.8km/h 76% 0in /  0.0mm 0 W/m2
03:54 60.3 °F /  15.7 °C 52.7 °F /  11.5 °C 30.1in /  1019.6hPa Calm   3mph /  4.8km/h 76% 0in /  0.0mm 0 W/m2
03:59 60.3 °F /  15.7 °C 52.7 °F /  11.5 °C 30.1in /  1019.6hPa Calm   1mph /  1.6km/h 76% 0in /  0.0mm 0 W/m2
04:04 60.3 °F /  15.7 °C 52.7 °F /  11.5 °C 30.1in /  1019.6hPa SSW 2mph /  3.2km/h 2mph /  3.2km/h 76% 0in /  0.0mm 0 W/m2
04:09 60.1 °F /  15.6 °C 52.5 °F /  11.4 °C 30.1in /  1019.6hPa Calm     76% 0in /  0.0mm 0 W/m2
04:14 59.9 °F /  15.5 °C 52.3 °F /  11.3 °C 30.1in /  1019.6hPa SSW 0.9mph /  1.4km/h 1mph /  1.6km/h 76% 0in /  0.0mm 0 W/m2
04:19 59.7 °F /  15.4 °C 52.5 °F /  11.4 °C 30.1in /  1019.6hPa SSW 0.9mph /  1.4km/h 1mph /  1.6km/h 77% 0in /  0.0mm 0 W/m2
04:24 59.7 °F /  15.4 °C 52.5 °F /  11.4 °C 30.1in /  1019.6hPa Calm     77% 0in /  0.0mm 0 W/m2
04:29 59.5 °F /  15.3 °C 52.3 °F /  11.3 °C 30.1in /  1019.6hPa SSW 2mph /  3.2km/h 2mph /  3.2km/h 77% 0in /  0.0mm 0 W/m2
04:34 59.5 °F /  15.3 °C 52.3 °F /  11.3 °C 30.1in /  1019.6hPa SSW 0.9mph /  1.4km/h 2mph /  3.2km/h 77% 0in /  0.0mm 0 W/m2
04:39 59.5 °F /  15.3 °C 52.3 °F /  11.3 °C 30.1in /  1019.6hPa SE 0.9mph /  1.4km/h 1mph /  1.6km/h 77% 0in /  0.0mm 0 W/m2
04:44 59.7 °F /  15.4 °C 52.2 °F /  11.2 °C 30.1in /  1019.6hPa SSE 0.9mph /  1.4km/h 1mph /  1.6km/h 76% 0in /  0.0mm 0 W/m2
04:49 59.9 °F /  15.5 °C 52.3 °F /  11.3 °C 30.1in /  1019.6hPa Calm   1mph /  1.6km/h 76% 0in /  0.0mm 0 W/m2
04:54 59.7 °F /  15.4 °C 52.2 °F /  11.2 °C 30.1in /  1019.6hPa SSE 0.9mph /  1.4km/h 3mph /  4.8km/h 76% 0in /  0.0mm 0 W/m2
04:59 59.5 °F /  15.3 °C 52.3 °F /  11.3 °C 30.1in /  1019.6hPa SSE 0.9mph /  1.4km/h 2mph /  3.2km/h 77% 0in /  0.0mm 0 W/m2
05:04 59.2 °F /  15.1 °C 52.3 °F /  11.3 °C 30.1in /  1019.6hPa SSE 0.9mph /  1.4km/h 2mph /  3.2km/h 78% 0in /  0.0mm 0 W/m2
05:09 59 °F /  15 °C 52.2 °F /  11.2 °C 30.1in /  1019.6hPa SSE 0.9mph /  1.4km/h 2mph /  3.2km/h 78% 0in /  0.0mm 0 W/m2
05:14 58.8 °F /  14.9 °C 52 °F /  11.1 °C 30.1in /  1019.6hPa SSE 0.9mph /  1.4km/h 2mph /  3.2km/h 78% 0in /  0.0mm 0 W/m2
05:19 58.6 °F /  14.8 °C 52.2 °F /  11.2 °C 30.1in /  1019.6hPa Calm   1mph /  1.6km/h 79% 0in /  0.0mm 0 W/m2
05:24 58.6 °F /  14.8 °C 52.2 °F /  11.2 °C 30.1in /  1019.6hPa SW 0.9mph /  1.4km/h 3mph /  4.8km/h 79% 0in /  0.0mm 0 W/m2
05:29 58.6 °F /  14.8 °C 52.2 °F /  11.2 °C 30.1in /  1019.6hPa NW 0.9mph /  1.4km/h 2mph /  3.2km/h 79% 0in /  0.0mm 0 W/m2
05:34 58.8 °F /  14.9 °C 52 °F /  11.1 °C 30.1in /  1019.6hPa Calm     78% 0in /  0.0mm 0 W/m2
05:39 59 °F /  15 °C 52.2 °F /  11.2 °C 30.1in /  1019.6hPa Calm   1mph /  1.6km/h 78% 0in /  0.0mm 0 W/m2
05:44 59.2 °F /  15.1 °C 52 °F /  11.1 °C 30.1in /  1019.6hPa SW 0.9mph /  1.4km/h 2mph /  3.2km/h 77% 0in /  0.0mm 0 W/m2
05:49 59 °F /  15 °C 51.8 °F /  11 °C 30.1in /  1019.6hPa Calm     77% 0in /  0.0mm 5 W/m2
05:54 59 °F /  15 °C 51.8 °F /  11 °C 30.1in /  1019.6hPa WNW 2.9mph /  4.7km/h 3mph /  4.8km/h 77% 0in /  0.0mm 7 W/m2
05:59 59.4 °F /  15.2 °C 52.2 °F /  11.2 °C 30.1in /  1019.6hPa WSW 0.9mph /  1.4km/h 1mph /  1.6km/h 77% 0in /  0.0mm 9 W/m2
06:04 59.4 °F /  15.2 °C 51.8 °F /  11 °C 30.1in /  1019.6hPa Calm   2mph /  3.2km/h 76% 0in /  0.0mm 12 W/m2
06:09 59.4 °F /  15.2 °C 51.8 °F /  11 °C 30.1in /  1019.6hPa West 0.9mph /  1.4km/h 3mph /  4.8km/h 76% 0in /  0.0mm 14 W/m2
06:14 59.5 °F /  15.3 °C 52 °F /  11.1 °C 30.1in /  1019.6hPa NW 2mph /  3.2km/h 3mph /  4.8km/h 76% 0in /  0.0mm 18 W/m2
06:19 59.7 °F /  15.4 °C 51.8 °F /  11 °C 30.1in /  1019.6hPa West 2mph /  3.2km/h 3mph /  4.8km/h 75% 0in /  0.0mm 19 W/m2
06:24 59.9 °F /  15.5 °C 52 °F /  11.1 °C 30.1in /  1019.6hPa NNW 2.9mph /  4.7km/h 3mph /  4.8km/h 75% 0in /  0.0mm 23 W/m2
06:29 60.1 °F /  15.6 °C 52.2 °F /  11.2 °C 30.1in /  1019.6hPa NW 2mph /  3.2km/h 2mph /  3.2km/h 75% 0in /  0.0mm 25 W/m2
06:34 60.1 °F /  15.6 °C 52.2 °F /  11.2 °C 30.1in /  1019.6hPa Calm   2mph /  3.2km/h 75% 0in /  0.0mm 26 W/m2
06:39 60.1 °F /  15.6 °C 52.2 °F /  11.2 °C 30.1in /  1019.6hPa WNW 0.9mph /  1.4km/h 2mph /  3.2km/h 75% 0in /  0.0mm 28 W/m2
06:44 60.1 °F /  15.6 °C 52.2 °F /  11.2 °C 30.1in /  1019.6hPa Calm   4mph /  6.4km/h 75% 0in /  0.0mm 32 W/m2
06:49 60.3 °F /  15.7 °C 52.3 °F /  11.3 °C 30.1in /  1019.6hPa WNW 0.9mph /  1.4km/h 3mph /  4.8km/h 75% 0in /  0.0mm 33 W/m2
06:54 60.3 °F /  15.7 °C 52.3 °F /  11.3 °C 30.1in /  1019.6hPa WNW 0.9mph /  1.4km/h 2mph /  3.2km/h 75% 0in /  0.0mm 35 W/m2
06:59 60.3 °F /  15.7 °C 52.3 °F /  11.3 °C 30.1in /  1020.0hPa WNW 0.9mph /  1.4km/h 1mph /  1.6km/h 75% 0in /  0.0mm 37 W/m2
07:04 60.4 °F /  15.8 °C 52.5 °F /  11.4 °C 30.1in /  1020.0hPa Calm   3mph /  4.8km/h 75% 0in /  0.0mm 39 W/m2
07:09 60.4 °F /  15.8 °C 52.5 °F /  11.4 °C 30.1in /  1020.0hPa WNW 2.9mph /  4.7km/h 3mph /  4.8km/h 75% 0in /  0.0mm 40 W/m2
07:14 60.4 °F /  15.8 °C 52.5 °F /  11.4 °C 30.1in /  1020.0hPa SW 0.9mph /  1.4km/h 3mph /  4.8km/h 75% 0in /  0.0mm 42 W/m2
07:19 60.6 °F /  15.9 °C 52.3 °F /  11.3 °C 30.1in /  1020.0hPa WNW 0.9mph /  1.4km/h 1mph /  1.6km/h 74% 0in /  0.0mm 44 W/m2
07:24 60.6 °F /  15.9 °C 52.3 °F /  11.3 °C 30.1in /  1020.0hPa ENE 2mph /  3.2km/h 2mph /  3.2km/h 74% 0in /  0.0mm 46 W/m2
07:29 60.8 °F /  16 °C 52.5 °F /  11.4 °C 30.1in /  1020.0hPa Calm   3mph /  4.8km/h 74% 0in /  0.0mm 47 W/m2
07:34 61 °F /  16.1 °C 52.7 °F /  11.5 °C 30.1in /  1020.0hPa Calm     74% 0in /  0.0mm 49 W/m2
07:39 61.2 °F /  16.2 °C 52.9 °F /  11.6 °C 30.1in /  1020.0hPa NNW 0.9mph /  1.4km/h 1mph /  1.6km/h 74% 0in /  0.0mm 51 W/m2
07:44 61.2 °F /  16.2 °C 52.9 °F /  11.6 °C 30.1in /  1020.0hPa West 0.9mph /  1.4km/h 4mph /  6.4km/h 74% 0in /  0.0mm 95 W/m2
07:49 61.5 °F /  16.4 °C 53.2 °F /  11.8 °C 30.1in /  1020.0hPa NW 2mph /  3.2km/h 4mph /  6.4km/h 74% 0in /  0.0mm 237 W/m2
07:54 61.9 °F /  16.6 °C 53.4 °F /  11.9 °C 30.1in /  1020.0hPa Calm   1mph /  1.6km/h 74% 0in /  0.0mm 253 W/m2
07:59 62.4 °F /  16.9 °C 53.2 °F /  11.8 °C 30.1in /  1020.0hPa Calm   3mph /  4.8km/h 72% 0in /  0.0mm 264 W/m2
08:04 63 °F /  17.2 °C 53.8 °F /  12.1 °C 30.1in /  1020.0hPa NW 2mph /  3.2km/h 4mph /  6.4km/h 72% 0in /  0.0mm 278 W/m2
08:09 63.3 °F /  17.4 °C 53.8 °F /  12.1 °C 30.1in /  1020.0hPa North 0.9mph /  1.4km/h 2mph /  3.2km/h 71% 0in /  0.0mm 288 W/m2
08:14 63.5 °F /  17.5 °C 53.6 °F /  12 °C 30.1in /  1020.0hPa NE 0.9mph /  1.4km/h 3mph /  4.8km/h 70% 0in /  0.0mm 306 W/m2
08:19 63.7 °F /  17.6 °C 53.8 °F /  12.1 °C 30.1in /  1020.0hPa NE 0.9mph /  1.4km/h 2mph /  3.2km/h 70% 0in /  0.0mm 320 W/m2
08:24 64 °F /  17.8 °C 54.1 °F /  12.3 °C 30.1in /  1020.0hPa East 0.9mph /  1.4km/h 2mph /  3.2km/h 70% 0in /  0.0mm 336 W/m2
08:29 64.2 °F /  17.9 °C 54.3 °F /  12.4 °C 30.1in /  1020.0hPa NW 0.9mph /  1.4km/h 2mph /  3.2km/h 70% 0in /  0.0mm 346 W/m2
08:34 64.4 °F /  18 °C 54 °F /  12.2 °C 30.1in /  1020.0hPa NNW 0.9mph /  1.4km/h 2mph /  3.2km/h 69% 0in /  0.0mm 360 W/m2
08:39 64.6 °F /  18.1 °C 54.1 °F /  12.3 °C 30.1in /  1020.0hPa NW 2mph /  3.2km/h 3mph /  4.8km/h 69% 0in /  0.0mm 371 W/m2
08:44 64.8 °F /  18.2 °C 54.3 °F /  12.4 °C 30.1in /  1020.0hPa ENE 2mph /  3.2km/h 3mph /  4.8km/h 69% 0in /  0.0mm 385 W/m2
08:49 64.9 °F /  18.3 °C 54.5 °F /  12.5 °C 30.1in /  1020.0hPa NNE 0.9mph /  1.4km/h 1mph /  1.6km/h 69% 0in /  0.0mm 397 W/m2
08:54 65.3 °F /  18.5 °C 54.9 °F /  12.7 °C 30.1in /  1020.0hPa NNE 0.9mph /  1.4km/h 3mph /  4.8km/h 69% 0in /  0.0mm 408 W/m2
08:59 65.3 °F /  18.5 °C 54.5 °F /  12.5 °C 30.1in /  1020.0hPa WNW 0.9mph /  1.4km/h 3mph /  4.8km/h 68% 0in /  0.0mm 422 W/m2
09:04 65.1 °F /  18.4 °C 54.7 °F /  12.6 °C 30.1in /  1020.0hPa NW 0.9mph /  1.4km/h 4mph /  6.4km/h 69% 0in /  0.0mm 434 W/m2
09:09 65.5 °F /  18.6 °C 55 °F /  12.8 °C 30.1in /  1020.0hPa Calm   5mph /  8km/h 69% 0in /  0.0mm 446 W/m2
09:14 66 °F /  18.9 °C 55.2 °F /  12.9 °C 30.1in /  1020.0hPa North 2mph /  3.2km/h 4mph /  6.4km/h 68% 0in /  0.0mm 464 W/m2
09:19 66.6 °F /  19.2 °C 55.2 °F /  12.9 °C 30.1in /  1020.0hPa West 2mph /  3.2km/h 5mph /  8km/h 67% 0in /  0.0mm 471 W/m2
09:24 66.6 °F /  19.2 °C 55.2 °F /  12.9 °C 30.1in /  1020.0hPa West 2mph /  3.2km/h 4mph /  6.4km/h 67% 0in /  0.0mm 482 W/m2
09:30 66.7 °F /  19.3 °C 55.4 °F /  13 °C 30.1in /  1020.0hPa NW 2.9mph /  4.7km/h 5mph /  8km/h 67% 0in /  0.0mm 496 W/m2
09:35 66.6 °F /  19.2 °C 54.9 °F /  12.7 °C 30.1in /  1020.0hPa NW 4.9mph /  7.9km/h 7mph /  11.3km/h 66% 0in /  0.0mm 508 W/m2
09:40 66.9 °F /  19.4 °C 55.6 °F /  13.1 °C 30.1in /  1020.0hPa North 4.9mph /  7.9km/h 8mph /  12.9km/h 67% 0in /  0.0mm 520 W/m2
09:45 67.3 °F /  19.6 °C 55.9 °F /  13.3 °C 30.1in /  1020.0hPa North 4.9mph /  7.9km/h 5mph /  8km/h 67% 0in /  0.0mm 526 W/m2
09:50 67.3 °F /  19.6 °C 55.6 °F /  13.1 °C 30.1in /  1020.0hPa WNW 2mph /  3.2km/h 6mph /  9.7km/h 66% 0in /  0.0mm 536 W/m2
09:55 67.5 °F /  19.7 °C 56.1 °F /  13.4 °C 30.1in /  1020.0hPa WNW 6mph /  9.7km/h 6mph /  9.7km/h 67% 0in /  0.0mm 545 W/m2
10:00 67.6 °F /  19.8 °C 55.9 °F /  13.3 °C 30.1in /  1020.0hPa East 0.9mph /  1.4km/h 4mph /  6.4km/h 66% 0in /  0.0mm 555 W/m2
10:05 68 °F /  20 °C 56.3 °F /  13.5 °C 30.1in /  1020.0hPa NNW 2.9mph /  4.7km/h 4mph /  6.4km/h 66% 0in /  0.0mm 571 W/m2
10:10 68.4 °F /  20.2 °C 56.1 °F /  13.4 °C 30.1in /  1020.0hPa NW 4mph /  6.4km/h 7mph /  11.3km/h 65% 0in /  0.0mm 587 W/m2
10:15 68.5 °F /  20.3 °C 55.9 °F /  13.3 °C 30.1in /  1020.3hPa ENE 4mph /  6.4km/h 4mph /  6.4km/h 64% 0in /  0.0mm 496 W/m2
10:20 68.9 °F /  20.5 °C 56.3 °F /  13.5 °C 30.1in /  1020.3hPa ENE 2mph /  3.2km/h 3mph /  4.8km/h 64% 0in /  0.0mm 79 W/m2
10:25 69.1 °F /  20.6 °C 55.9 °F /  13.3 °C 30.1in /  1020.3hPa SE 2mph /  3.2km/h 4mph /  6.4km/h 63% 0in /  0.0mm 608 W/m2
10:30 69.1 °F /  20.6 °C 55.9 °F /  13.3 °C 30.1in /  1020.3hPa East 4mph /  6.4km/h 7mph /  11.3km/h 63% 0in /  0.0mm 622 W/m2
10:35 69.6 °F /  20.9 °C 56.5 °F /  13.6 °C 30.1in /  1020.3hPa ENE 2mph /  3.2km/h 3mph /  4.8km/h 63% 0in /  0.0mm 631 W/m2
10:40 70 °F /  21.1 °C 55.9 °F /  13.3 °C 30.1in /  1020.3hPa East 6.9mph /  11.1km/h 8mph /  12.9km/h 61% 0in /  0.0mm 652 W/m2
10:45 70.3 °F /  21.3 °C 55.8 °F /  13.2 °C 30.1in /  1020.3hPa WSW 0.9mph /  1.4km/h 6mph /  9.7km/h 60% 0in /  0.0mm 654 W/m2
10:50 70.5 °F /  21.4 °C 55.9 °F /  13.3 °C 30.1in /  1020.3hPa NE 0.9mph /  1.4km/h 7mph /  11.3km/h 60% 0in /  0.0mm 663 W/m2
10:55 70.5 °F /  21.4 °C 56.5 °F /  13.6 °C 30.1in /  1020.0hPa NW 2mph /  3.2km/h 3mph /  4.8km/h 61% 0in /  0.0mm 673 W/m2
11:00 70.3 °F /  21.3 °C 56.3 °F /  13.5 °C 30.1in /  1020.0hPa West 0.9mph /  1.4km/h 4mph /  6.4km/h 61% 0in /  0.0mm 679 W/m2
11:05 70.5 °F /  21.4 °C 56.5 °F /  13.6 °C 30.1in /  1020.0hPa ENE 2mph /  3.2km/h 3mph /  4.8km/h 61% 0in /  0.0mm 691 W/m2
11:10 71.1 °F /  21.7 °C 55.9 °F /  13.3 °C 30.1in /  1020.0hPa NW 2mph /  3.2km/h 4mph /  6.4km/h 59% 0in /  0.0mm 710 W/m2
11:15 71.1 °F /  21.7 °C 56.5 °F /  13.6 °C 30.1in /  1020.0hPa ESE 0.9mph /  1.4km/h 4mph /  6.4km/h 60% 0in /  0.0mm 719 W/m2
11:20 71.6 °F /  22 °C 57 °F /  13.9 °C 30.1in /  1020.0hPa ESE 4mph /  6.4km/h 4mph /  6.4km/h 60% 0in /  0.0mm 715 W/m2
11:25 72 °F /  22.2 °C 57.7 °F /  14.3 °C 30.1in /  1020.0hPa ESE 4mph /  6.4km/h 4mph /  6.4km/h 61% 0in /  0.0mm 724 W/m2
11:30 72.3 °F /  22.4 °C 56.7 °F /  13.7 °C 30.1in /  1020.0hPa ESE 0.9mph /  1.4km/h 5mph /  8km/h 58% 0in /  0.0mm 712 W/m2
11:35 72.5 °F /  22.5 °C 57.4 °F /  14.1 °C 30.1in /  1020.0hPa South 0.9mph /  1.4km/h 2mph /  3.2km/h 59% 0in /  0.0mm 740 W/m2
11:41 72.7 °F /  22.6 °C 57 °F /  13.9 °C 30.1in /  1019.6hPa NE 0.9mph /  1.4km/h 4mph /  6.4km/h 58% 0in /  0.0mm 742 W/m2
11:46 72.9 °F /  22.7 °C 58.6 °F /  14.8 °C 30.1in /  1019.6hPa NW 0.9mph /  1.4km/h 3mph /  4.8km/h 61% 0in /  0.0mm 742 W/m2
11:51 73.2 °F /  22.9 °C 57 °F /  13.9 °C 30.1in /  1019.6hPa WNW 2mph /  3.2km/h 3mph /  4.8km/h 57% 0in /  0.0mm 765 W/m2
11:56 73.4 °F /  23 °C 56.7 °F /  13.7 °C 30.1in /  1019.6hPa ENE 2mph /  3.2km/h 2mph /  3.2km/h 56% 0in /  0.0mm 763 W/m2
12:01 73.8 °F /  23.2 °C 57 °F /  13.9 °C 30.1in /  1019.6hPa East 2.9mph /  4.7km/h 8mph /  12.9km/h 56% 0in /  0.0mm 775 W/m2
12:06 73.8 °F /  23.2 °C 57.6 °F /  14.2 °C 30.1in /  1019.6hPa NE 2mph /  3.2km/h 5mph /  8km/h 57% 0in /  0.0mm 795 W/m2
12:11 74.1 °F /  23.4 °C 56.8 °F /  13.8 °C 30.1in /  1019.6hPa ESE 2mph /  3.2km/h 5mph /  8km/h 55% 0in /  0.0mm 793 W/m2
12:16 74.1 °F /  23.4 °C 57.4 °F /  14.1 °C 30.1in /  1019.6hPa WNW 2mph /  3.2km/h 4mph /  6.4km/h 56% 0in /  0.0mm 793 W/m2
12:21 74.1 °F /  23.4 °C 57.4 °F /  14.1 °C 30.1in /  1019.6hPa WNW 2mph /  3.2km/h 3mph /  4.8km/h 56% 0in /  0.0mm 793 W/m2
12:26 74.1 °F /  23.4 °C 58.5 °F /  14.7 °C 30.1in /  1019.3hPa WNW 0.9mph /  1.4km/h 3mph /  4.8km/h 58% 0in /  0.0mm 847 W/m2
12:31 74.5 °F /  23.6 °C 56.7 °F /  13.7 °C 30.1in /  1019.3hPa South 4mph /  6.4km/h 4mph /  6.4km/h 54% 0in /  0.0mm 831 W/m2
12:36 74.5 °F /  23.6 °C 57.7 °F /  14.3 °C 30.1in /  1019.3hPa WSW 2.9mph /  4.7km/h 3mph /  4.8km/h 56% 0in /  0.0mm 749 W/m2
12:41 74.3 °F /  23.5 °C 56.7 °F /  13.7 °C 30.1in /  1019.3hPa West 2.9mph /  4.7km/h 3mph /  4.8km/h 54% 0in /  0.0mm 837 W/m2
12:46 74.7 °F /  23.7 °C 56.8 °F /  13.8 °C 30.1in /  1019.3hPa WNW 0.9mph /  1.4km/h 2mph /  3.2km/h 54% 0in /  0.0mm 798 W/m2
12:51 74.8 °F /  23.8 °C 56.5 °F /  13.6 °C 30.1in /  1019.3hPa North 0.9mph /  1.4km/h 4mph /  6.4km/h 53% 0in /  0.0mm 875 W/m2
12:56 74.8 °F /  23.8 °C 56.5 °F /  13.6 °C 30.1in /  1019.3hPa WNW 0.9mph /  1.4km/h 4mph /  6.4km/h 53% 0in /  0.0mm 888 W/m2
13:01 74.8 °F /  23.8 °C 55.6 °F /  13.1 °C 30.1in /  1019.3hPa NNW 6mph /  9.7km/h 6mph /  9.7km/h 51% 0in /  0.0mm 142 W/m2
13:06 74.8 °F /  23.8 °C 56.1 °F /  13.4 °C 30.1in /  1019.3hPa West 0.9mph /  1.4km/h 5mph /  8km/h 52% 0in /  0.0mm 861 W/m2
13:11 74.7 °F /  23.7 °C 56.8 °F /  13.8 °C 30.1in /  1019.3hPa West 0.9mph /  1.4km/h 2mph /  3.2km/h 54% 0in /  0.0mm 847 W/m2
13:16 75.4 °F /  24.1 °C 57 °F /  13.9 °C 30.1in /  1019.3hPa ENE 2.9mph /  4.7km/h 9mph /  14.5km/h 53% 0in /  0.0mm 835 W/m2
13:21 75.6 °F /  24.2 °C 56.7 °F /  13.7 °C 30.1in /  1019.0hPa East 2.9mph /  4.7km/h 3mph /  4.8km/h 52% 0in /  0.0mm 835 W/m2
13:26 75.6 °F /  24.2 °C 57.2 °F /  14 °C 30.1in /  1019.0hPa Calm   5mph /  8km/h 53% 0in /  0.0mm 863 W/m2
13:31 75.9 °F /  24.4 °C 55.9 °F /  13.3 °C 30.1in /  1019.0hPa East 2.9mph /  4.7km/h 4mph /  6.4km/h 50% 0in /  0.0mm 870 W/m2
13:36 76.1 °F /  24.5 °C 57.2 °F /  14 °C 30.1in /  1019.0hPa SSE 2mph /  3.2km/h 3mph /  4.8km/h 52% 0in /  0.0mm 840 W/m2
13:41 76.1 °F /  24.5 °C 57.7 °F /  14.3 °C 30.1in /  1019.0hPa SE 2.9mph /  4.7km/h 4mph /  6.4km/h 53% 0in /  0.0mm 884 W/m2
13:46 76.5 °F /  24.7 °C 55.9 °F /  13.3 °C 30.1in /  1019.0hPa NE 0.9mph /  1.4km/h 4mph /  6.4km/h 49% 0in /  0.0mm 865 W/m2
13:51 76.6 °F /  24.8 °C 56.1 °F /  13.4 °C 30.1in /  1019.0hPa WNW 7mph /  11.3km/h 7mph /  11.3km/h 49% 0in /  0.0mm 909 W/m2
13:56 76.1 °F /  24.5 °C 55.6 °F /  13.1 °C 30.1in /  1019.0hPa NW 0.9mph /  1.4km/h 3mph /  4.8km/h 49% 0in /  0.0mm 863 W/m2
14:02 75.7 °F /  24.3 °C 56.3 °F /  13.5 °C 30.1in /  1019.0hPa SSW 2.9mph /  4.7km/h 10mph /  16.1km/h 51% 0in /  0.0mm 151 W/m2
14:07 75.7 °F /  24.3 °C 56.8 °F /  13.8 °C 30.1in /  1019.0hPa ENE 6mph /  9.7km/h 9mph /  14.5km/h 52% 0in /  0.0mm 879 W/m2
14:12 75.9 °F /  24.4 °C 55.9 °F /  13.3 °C 30.1in /  1019.0hPa East 2.9mph /  4.7km/h 7mph /  11.3km/h 50% 0in /  0.0mm 854 W/m2
14:17 76.3 °F /  24.6 °C 57.4 °F /  14.1 °C 30.1in /  1019.0hPa ENE 2mph /  3.2km/h 7mph /  11.3km/h 52% 0in /  0.0mm 874 W/m2
14:22 76.6 °F /  24.8 °C 58.3 °F /  14.6 °C 30.1in /  1019.0hPa East 2.9mph /  4.7km/h 4mph /  6.4km/h 53% 0in /  0.0mm 865 W/m2
14:27 77.4 °F /  25.2 °C 57.7 °F /  14.3 °C 30.1in /  1019.0hPa NE 4mph /  6.4km/h 4mph /  6.4km/h 51% 0in /  0.0mm 868 W/m2
14:32 77.7 °F /  25.4 °C 56.5 °F /  13.6 °C 30.1in /  1019.0hPa NW 2mph /  3.2km/h 3mph /  4.8km/h 48% 0in /  0.0mm 877 W/m2
14:37 78.1 °F /  25.6 °C 56.8 °F /  13.8 °C 30.1in /  1019.0hPa WNW 4.9mph /  7.9km/h 8mph /  12.9km/h 48% 0in /  0.0mm 958 W/m2
14:42 78.1 °F /  25.6 °C 57.4 °F /  14.1 °C 30.1in /  1018.6hPa SW 2.9mph /  4.7km/h 4mph /  6.4km/h 49% 0in /  0.0mm 914 W/m2
14:47 77.9 °F /  25.5 °C 56.7 °F /  13.7 °C 30.1in /  1018.6hPa West 0.9mph /  1.4km/h 8mph /  12.9km/h 48% 0in /  0.0mm 178 W/m2
14:52 77.5 °F /  25.3 °C 56.8 °F /  13.8 °C 30.1in /  1018.6hPa ENE 4.9mph /  7.9km/h 5mph /  8km/h 49% 0in /  0.0mm 265 W/m2
14:57 77.5 °F /  25.3 °C 56.8 °F /  13.8 °C 30.1in /  1018.6hPa East 2mph /  3.2km/h 7mph /  11.3km/h 49% 0in /  0.0mm 188 W/m2
15:02 77.4 °F /  25.2 °C 56.7 °F /  13.7 °C 30.1in /  1018.6hPa NE 2.9mph /  4.7km/h 4mph /  6.4km/h 49% 0in /  0.0mm 220 W/m2
15:07 77.4 °F /  25.2 °C 56.7 °F /  13.7 °C 30.1in /  1018.6hPa SE 0.9mph /  1.4km/h 3mph /  4.8km/h 49% 0in /  0.0mm 183 W/m2
15:12 77.5 °F /  25.3 °C 56.3 °F /  13.5 °C 30.1in /  1018.6hPa NW 2mph /  3.2km/h 6mph /  9.7km/h 48% 0in /  0.0mm 902 W/m2
15:17 77.2 °F /  25.1 °C 56.5 °F /  13.6 °C 30.1in /  1018.6hPa ENE 2mph /  3.2km/h 3mph /  4.8km/h 49% 0in /  0.0mm 169 W/m2
15:22 76.8 °F /  24.9 °C 55.6 °F /  13.1 °C 30.1in /  1018.6hPa NNE 0.9mph /  1.4km/h 6mph /  9.7km/h 48% 0in /  0.0mm 146 W/m2
15:27 76.6 °F /  24.8 °C 56.1 °F /  13.4 °C 30.1in /  1018.3hPa NW 0.9mph /  1.4km/h 3mph /  4.8km/h 49% 0in /  0.0mm 171 W/m2
15:32 76.8 °F /  24.9 °C 56.8 °F /  13.8 °C 30.1in /  1018.3hPa WNW 0.9mph /  1.4km/h 3mph /  4.8km/h 50% 0in /  0.0mm 812 W/m2
15:37 77.5 °F /  25.3 °C 57.4 °F /  14.1 °C 30.1in /  1018.3hPa East 4mph /  6.4km/h 7mph /  11.3km/h 50% 0in /  0.0mm 819 W/m2
15:42 77.7 °F /  25.4 °C 56.5 °F /  13.6 °C 30.1in /  1018.3hPa NW 2mph /  3.2km/h 3mph /  4.8km/h 48% 0in /  0.0mm 211 W/m2
15:47 77.5 °F /  25.3 °C 56.3 °F /  13.5 °C 30.1in /  1018.3hPa North 6mph /  9.7km/h 9mph /  14.5km/h 48% 0in /  0.0mm 469 W/m2
15:52 77.2 °F /  25.1 °C 56.5 °F /  13.6 °C 30.1in /  1018.3hPa ENE 2mph /  3.2km/h 4mph /  6.4km/h 49% 0in /  0.0mm 158 W/m2
15:57 76.6 °F /  24.8 °C 56.1 °F /  13.4 °C 30.1in /  1018.3hPa North 0.9mph /  1.4km/h 3mph /  4.8km/h 49% 0in /  0.0mm 139 W/m2
16:02 76.8 °F /  24.9 °C 56.3 °F /  13.5 °C 30.1in /  1018.3hPa NW 2mph /  3.2km/h 3mph /  4.8km/h 49% 0in /  0.0mm 745 W/m2
16:07 77.5 °F /  25.3 °C 56.3 °F /  13.5 °C 30.1in /  1018.3hPa Calm   2mph /  3.2km/h 48% 0in /  0.0mm 744 W/m2
16:12 78.3 °F /  25.7 °C 56.3 °F /  13.5 °C 30.1in /  1018.0hPa WNW 0.9mph /  1.4km/h 5mph /  8km/h 47% 0in /  0.0mm 747 W/m2
16:17 78.6 °F /  25.9 °C 57.2 °F /  14 °C 30.1in /  1018.0hPa SW 2mph /  3.2km/h 2mph /  3.2km/h 48% 0in /  0.0mm 707 W/m2
16:22 79.3 °F /  26.3 °C 56.8 °F /  13.8 °C 30.1in /  1018.0hPa ESE 6mph /  9.7km/h 7mph /  11.3km/h 46% 0in /  0.0mm 696 W/m2
16:27 79 °F /  26.1 °C 56.5 °F /  13.6 °C 30.1in /  1018.0hPa East 6mph /  9.7km/h 8mph /  12.9km/h 46% 0in /  0.0mm 160 W/m2
16:33 78.6 °F /  25.9 °C 56.7 °F /  13.7 °C 30.1in /  1018.0hPa ENE 0.9mph /  1.4km/h 5mph /  8km/h 47% 0in /  0.0mm 251 W/m2
16:38 78.4 °F /  25.8 °C 56.5 °F /  13.6 °C 30.1in /  1018.0hPa West 6mph /  9.7km/h 6mph /  9.7km/h 47% 0in /  0.0mm 670 W/m2
16:43 78.8 °F /  26 °C 55.6 °F /  13.1 °C 30.1in /  1018.0hPa WNW 2mph /  3.2km/h 5mph /  8km/h 45% 0in /  0.0mm 615 W/m2
16:48 79 °F /  26.1 °C 56.5 °F /  13.6 °C 30.1in /  1018.0hPa West 2.9mph /  4.7km/h 4mph /  6.4km/h 46% 0in /  0.0mm 652 W/m2
16:53 79.2 °F /  26.2 °C 57.2 °F /  14 °C 30.1in /  1018.0hPa East 2.9mph /  4.7km/h 7mph /  11.3km/h 47% 0in /  0.0mm 612 W/m2
16:58 79.3 °F /  26.3 °C 55.6 °F /  13.1 °C 30.1in /  1018.0hPa West 0.9mph /  1.4km/h 2mph /  3.2km/h 44% 0in /  0.0mm 589 W/m2
17:03 79.9 °F /  26.6 °C 57.2 °F /  14 °C 30.1in /  1018.0hPa NNW 2mph /  3.2km/h 3mph /  4.8km/h 46% 0in /  0.0mm 578 W/m2
17:08 80.4 °F /  26.9 °C 55.9 °F /  13.3 °C 30.1in /  1018.0hPa WNW 2.9mph /  4.7km/h 4mph /  6.4km/h 43% 0in /  0.0mm 578 W/m2
17:13 80.2 °F /  26.8 °C 55.8 °F /  13.2 °C 30.1in /  1018.0hPa NNW 2.9mph /  4.7km/h 6mph /  9.7km/h 43% 0in /  0.0mm 589 W/m2
17:18 80.2 °F /  26.8 °C 57 °F /  13.9 °C 30.1in /  1018.0hPa SSE 2mph /  3.2km/h 3mph /  4.8km/h 45% 0in /  0.0mm 626 W/m2
17:23 80.1 °F /  26.7 °C 56.1 °F /  13.4 °C 30.1in /  1018.0hPa WSW 2.9mph /  4.7km/h 5mph /  8km/h 44% 0in /  0.0mm 610 W/m2
17:28 80.2 °F /  26.8 °C 57 °F /  13.9 °C 30.1in /  1018.0hPa NE 2mph /  3.2km/h 6mph /  9.7km/h 45% 0in /  0.0mm 610 W/m2
17:33 80.4 °F /  26.9 °C 56.5 °F /  13.6 °C 30.1in /  1018.0hPa SE 2.9mph /  4.7km/h 4mph /  6.4km/h 44% 0in /  0.0mm 578 W/m2
17:38 80.4 °F /  26.9 °C 56.5 °F /  13.6 °C 30.1in /  1017.6hPa ESE 2mph /  3.2km/h 3mph /  4.8km/h 44% 0in /  0.0mm 589 W/m2
17:43 80.8 °F /  27.1 °C 56.1 °F /  13.4 °C 30.1in /  1017.6hPa West 2mph /  3.2km/h 8mph /  12.9km/h 43% 0in /  0.0mm 578 W/m2
17:48 81 °F /  27.2 °C 56.3 °F /  13.5 °C 30.1in /  1017.6hPa East 0.9mph /  1.4km/h 2mph /  3.2km/h 43% 0in /  0.0mm 564 W/m2
17:53 81.1 °F /  27.3 °C 57.7 °F /  14.3 °C 30.1in /  1017.6hPa ESE 2.9mph /  4.7km/h 8mph /  12.9km/h 45% 0in /  0.0mm 522 W/m2
17:58 81.3 °F /  27.4 °C 56.7 °F /  13.7 °C 30.1in /  1017.6hPa ESE 2mph /  3.2km/h 4mph /  6.4km/h 43% 0in /  0.0mm 503 W/m2
18:03 81 °F /  27.2 °C 56.3 °F /  13.5 °C 30.1in /  1017.6hPa ENE 4.9mph /  7.9km/h 5mph /  8km/h 43% 0in /  0.0mm 443 W/m2
18:08 80.2 °F /  26.8 °C 55.8 °F /  13.2 °C 30.1in /  1017.6hPa East 0.9mph /  1.4km/h 4mph /  6.4km/h 43% 0in /  0.0mm 204 W/m2
18:13 79.9 °F /  26.6 °C 55.4 °F /  13 °C 30.1in /  1017.6hPa SSW 2mph /  3.2km/h 2mph /  3.2km/h 43% 0in /  0.0mm 79 W/m2
18:18 79 °F /  26.1 °C 55.8 °F /  13.2 °C 30.1in /  1017.6hPa Calm   1mph /  1.6km/h 45% 0in /  0.0mm 77 W/m2
18:23 78.3 °F /  25.7 °C 55.8 °F /  13.2 °C 30.1in /  1017.6hPa ESE 2mph /  3.2km/h 2mph /  3.2km/h 46% 0in /  0.0mm 378 W/m2
18:29 78.3 °F /  25.7 °C 55.2 °F /  12.9 °C 30.1in /  1017.6hPa NNW 4mph /  6.4km/h 5mph /  8km/h 45% 0in /  0.0mm 362 W/m2
18:34 78.4 °F /  25.8 °C 55.4 °F /  13 °C 30.1in /  1017.6hPa WSW 2mph /  3.2km/h 2mph /  3.2km/h 45% 0in /  0.0mm 65 W/m2
18:39 78.4 °F /  25.8 °C 55.4 °F /  13 °C 30.1in /  1017.6hPa NW 0.9mph /  1.4km/h 5mph /  8km/h 45% 0in /  0.0mm 338 W/m2
18:44 79 °F /  26.1 °C 55.8 °F /  13.2 °C 30.1in /  1017.6hPa NNE 0.9mph /  1.4km/h 1mph /  1.6km/h 45% 0in /  0.0mm 313 W/m2
18:49 79.2 °F /  26.2 °C 56.7 °F /  13.7 °C 30.1in /  1017.6hPa North 2mph /  3.2km/h 5mph /  8km/h 46% 0in /  0.0mm 295 W/m2
18:54 79.5 °F /  26.4 °C 56.8 °F /  13.8 °C 30.1in /  1017.6hPa East 2mph /  3.2km/h 6mph /  9.7km/h 46% 0in /  0.0mm 283 W/m2
18:59 79.3 °F /  26.3 °C 56.1 °F /  13.4 °C 30.1in /  1017.6hPa East 4.9mph /  7.9km/h 6mph /  9.7km/h 45% 0in /  0.0mm 262 W/m2
19:04 79 °F /  26.1 °C 55.8 °F /  13.2 °C 30.1in /  1017.6hPa East 6mph /  9.7km/h 8mph /  12.9km/h 45% 0in /  0.0mm 257 W/m2
19:09 78.8 °F /  26 °C 55 °F /  12.8 °C 30in /  1017.3hPa NNW 2mph /  3.2km/h 3mph /  4.8km/h 44% 0in /  0.0mm 246 W/m2
19:14 78.8 °F /  26 °C 55.6 °F /  13.1 °C 30in /  1017.3hPa SE 0.9mph /  1.4km/h 8mph /  12.9km/h 45% 0in /  0.0mm 237 W/m2
19:19 78.6 °F /  25.9 °C 55.6 °F /  13.1 °C 30in /  1017.3hPa NNE 0.9mph /  1.4km/h 1mph /  1.6km/h 45% 0in /  0.0mm 227 W/m2
19:24 79.2 °F /  26.2 °C 55.9 °F /  13.3 °C 30in /  1017.3hPa Calm   4mph /  6.4km/h 45% 0in /  0.0mm 214 W/m2
19:29 79.5 °F /  26.4 °C 55.8 °F /  13.2 °C 30in /  1017.3hPa Calm   3mph /  4.8km/h 44% 0in /  0.0mm 206 W/m2
19:34 79.9 °F /  26.6 °C 55.9 °F /  13.3 °C 30in /  1017.3hPa East 0.9mph /  1.4km/h 2mph /  3.2km/h 44% 0in /  0.0mm 199 W/m2
19:39 80.1 °F /  26.7 °C 56.1 °F /  13.4 °C 30in /  1017.3hPa Calm   1mph /  1.6km/h 44% 0in /  0.0mm 190 W/m2
19:44 80.2 °F /  26.8 °C 55.8 °F /  13.2 °C 30.1in /  1017.6hPa Calm   2mph /  3.2km/h 43% 0in /  0.0mm 185 W/m2
19:49 80.2 °F /  26.8 °C 55.8 °F /  13.2 °C 30.1in /  1017.6hPa Calm   1mph /  1.6km/h 43% 0in /  0.0mm 176 W/m2
19:54 80.1 °F /  26.7 °C 56.1 °F /  13.4 °C 30.1in /  1017.6hPa ESE 0.9mph /  1.4km/h 4mph /  6.4km/h 44% 0in /  0.0mm 142 W/m2
19:59 79.5 °F /  26.4 °C 56.3 °F /  13.5 °C 30.1in /  1017.6hPa Calm   2mph /  3.2km/h 45% 0in /  0.0mm 125 W/m2
20:04 79.3 °F /  26.3 °C 56.8 °F /  13.8 °C 30.1in /  1017.6hPa Calm   1mph /  1.6km/h 46% 0in /  0.0mm 93 W/m2
20:09 79.2 °F /  26.2 °C 57.7 °F /  14.3 °C 30.1in /  1017.6hPa Calm   1mph /  1.6km/h 48% 0in /  0.0mm 84 W/m2
20:14 78.8 °F /  26 °C 55.6 °F /  13.1 °C 30.1in /  1017.6hPa NE 0.9mph /  1.4km/h 2mph /  3.2km/h 45% 0in /  0.0mm 76 W/m2
20:19 78.1 °F /  25.6 °C 55 °F /  12.8 °C 30.1in /  1017.6hPa East 0.9mph /  1.4km/h 4mph /  6.4km/h 45% 0in /  0.0mm 69 W/m2
20:24 77.5 °F /  25.3 °C 56.8 °F /  13.8 °C 30.1in /  1017.6hPa Calm     49% 0in /  0.0mm 39 W/m2
20:29 76.6 °F /  24.8 °C 54.9 °F /  12.7 °C 30.1in /  1017.6hPa SE 0.9mph /  1.4km/h 4mph /  6.4km/h 47% 0in /  0.0mm 35 W/m2
20:34 76.3 °F /  24.6 °C 56.8 °F /  13.8 °C 30.1in /  1017.6hPa SE 0.9mph /  1.4km/h 1mph /  1.6km/h 51% 0in /  0.0mm 35 W/m2
20:39 75.4 °F /  24.1 °C 55.9 °F /  13.3 °C 30.1in /  1017.6hPa East 0.9mph /  1.4km/h 2mph /  3.2km/h 51% 0in /  0.0mm 28 W/m2
20:44 74.8 °F /  23.8 °C 55 °F /  12.8 °C 30.1in /  1017.6hPa NE 0.9mph /  1.4km/h 2mph /  3.2km/h 50% 0in /  0.0mm 26 W/m2
20:49 74.7 °F /  23.7 °C 55.4 °F /  13 °C 30.1in /  1018.0hPa ENE 2mph /  3.2km/h 3mph /  4.8km/h 51% 0in /  0.0mm 25 W/m2
20:54 74.7 °F /  23.7 °C 55.4 °F /  13 °C 30.1in /  1018.0hPa NE 0.9mph /  1.4km/h 4mph /  6.4km/h 51% 0in /  0.0mm 23 W/m2
20:59 74.7 °F /  23.7 °C 55.9 °F /  13.3 °C 30.1in /  1018.0hPa Calm   3mph /  4.8km/h 52% 0in /  0.0mm 19 W/m2
21:04 74.7 °F /  23.7 °C 55.9 °F /  13.3 °C 30.1in /  1018.0hPa WNW 4mph /  6.4km/h 6mph /  9.7km/h 52% 0in /  0.0mm 14 W/m2
21:09 74.5 °F /  23.6 °C 56.3 °F /  13.5 °C 30.1in /  1018.3hPa Calm   3mph /  4.8km/h 53% 0in /  0.0mm 12 W/m2
21:14 74.3 °F /  23.5 °C 56.7 °F /  13.7 °C 30.1in /  1018.3hPa Calm   6mph /  9.7km/h 54% 0in /  0.0mm 9 W/m2
21:19 73.9 °F /  23.3 °C 57.2 °F /  14 °C 30.1in /  1018.3hPa NE 2mph /  3.2km/h 4mph /  6.4km/h 56% 0in /  0.0mm 7 W/m2
21:24 73.6 °F /  23.1 °C 57.4 °F /  14.1 °C 30.1in /  1018.3hPa NNW 0.9mph /  1.4km/h 2mph /  3.2km/h 57% 0in /  0.0mm 0 W/m2
21:29 73.2 °F /  22.9 °C 57 °F /  13.9 °C 30.1in /  1018.3hPa NE 2.9mph /  4.7km/h 4mph /  6.4km/h 57% 0in /  0.0mm 0 W/m2
21:34 73 °F /  22.8 °C 57.4 °F /  14.1 °C 30.1in /  1018.3hPa NW 2mph /  3.2km/h 2mph /  3.2km/h 58% 0in /  0.0mm 0 W/m2
21:39 72.7 °F /  22.6 °C 57 °F /  13.9 °C 30.1in /  1018.6hPa SE 2mph /  3.2km/h 2mph /  3.2km/h 58% 0in /  0.0mm 0 W/m2
21:44 72.5 °F /  22.5 °C 57.4 °F /  14.1 °C 30.1in /  1018.6hPa NNW 0.9mph /  1.4km/h 3mph /  4.8km/h 59% 0in /  0.0mm 0 W/m2
21:49 72.1 °F /  22.3 °C 57 °F /  13.9 °C 30.1in /  1018.6hPa ENE 0.9mph /  1.4km/h 3mph /  4.8km/h 59% 0in /  0.0mm 0 W/m2
21:54 72 °F /  22.2 °C 56.8 °F /  13.8 °C 30.1in /  1018.6hPa Calm   1mph /  1.6km/h 59% 0in /  0.0mm 0 W/m2
21:59 71.8 °F /  22.1 °C 57.2 °F /  14 °C 30.1in /  1018.6hPa North 0.9mph /  1.4km/h 2mph /  3.2km/h 60% 0in /  0.0mm 0 W/m2
22:04 71.4 °F /  21.9 °C 56.8 °F /  13.8 °C 30.1in /  1018.6hPa WNW 2mph /  3.2km/h 3mph /  4.8km/h 60% 0in /  0.0mm 0 W/m2
22:09 71.1 °F /  21.7 °C 56.8 °F /  13.8 °C 30.1in /  1019.0hPa NNE 0.9mph /  1.4km/h 1mph /  1.6km/h 61% 0in /  0.0mm 0 W/m2
22:14 70.9 °F /  21.6 °C 56.8 °F /  13.8 °C 30.1in /  1018.6hPa Calm   1mph /  1.6km/h 61% 0in /  0.0mm 0 W/m2
22:19 70.5 °F /  21.4 °C 56.5 °F /  13.6 °C 30.1in /  1019.0hPa NNE 0.9mph /  1.4km/h 2mph /  3.2km/h 61% 0in /  0.0mm 0 W/m2
22:24 70.3 °F /  21.3 °C 56.3 °F /  13.5 °C 30.1in /  1019.0hPa East 0.9mph /  1.4km/h 2mph /  3.2km/h 61% 0in /  0.0mm 0 W/m2
22:29 70.2 °F /  21.2 °C 56.5 °F /  13.6 °C 30.1in /  1019.0hPa NNE 2mph /  3.2km/h 2mph /  3.2km/h 62% 0in /  0.0mm 0 W/m2
22:34 69.8 °F /  21 °C 56.1 °F /  13.4 °C 30.1in /  1019.0hPa SE 0.9mph /  1.4km/h 1mph /  1.6km/h 62% 0in /  0.0mm 0 W/m2
22:39 69.4 °F /  20.8 °C 56.3 °F /  13.5 °C 30.1in /  1019.0hPa ESE 0.9mph /  1.4km/h 1mph /  1.6km/h 63% 0in /  0.0mm 0 W/m2
22:44 69.3 °F /  20.7 °C 56.5 °F /  13.6 °C 30.1in /  1019.3hPa Calm     64% 0in /  0.0mm 0 W/m2
22:49 68.7 °F /  20.4 °C 56.1 °F /  13.4 °C 30.1in /  1019.0hPa South 0.9mph /  1.4km/h 2mph /  3.2km/h 64% 0in /  0.0mm 0 W/m2
22:54 68.2 °F /  20.1 °C 55.9 °F /  13.3 °C 30.1in /  1019.0hPa South 0.9mph /  1.4km/h 2mph /  3.2km/h 65% 0in /  0.0mm 0 W/m2
22:59 67.8 °F /  19.9 °C 55.6 °F /  13.1 °C 30.1in /  1019.3hPa West 0.9mph /  1.4km/h 2mph /  3.2km/h 65% 0in /  0.0mm 0 W/m2
23:04 67.5 °F /  19.7 °C 55.2 °F /  12.9 °C 30.1in /  1019.3hPa SE 0.9mph /  1.4km/h 3mph /  4.8km/h 65% 0in /  0.0mm 0 W/m2
23:09 66.9 °F /  19.4 °C 55.2 °F /  12.9 °C 30.1in /  1019.3hPa SSW 0.9mph /  1.4km/h 2mph /  3.2km/h 66% 0in /  0.0mm 0 W/m2
23:14 66.7 °F /  19.3 °C 55 °F /  12.8 °C 30.1in /  1019.3hPa ENE 0.9mph /  1.4km/h 3mph /  4.8km/h 66% 0in /  0.0mm 0 W/m2
23:19 66.7 °F /  19.3 °C 55.4 °F /  13 °C 30.1in /  1019.3hPa NE 2mph /  3.2km/h 2mph /  3.2km/h 67% 0in /  0.0mm 0 W/m2
23:25 66.7 °F /  19.3 °C 55.4 °F /  13 °C 30.1in /  1019.3hPa West 2mph /  3.2km/h 2mph /  3.2km/h 67% 0in /  0.0mm 0 W/m2
23:30 66.6 °F /  19.2 °C 55.2 °F /  12.9 °C 30.1in /  1019.3hPa Calm   2mph /  3.2km/h 67% 0in /  0.0mm 0 W/m2
23:35 66.2 °F /  19 °C 55.4 °F /  13 °C 30.1in /  1019.3hPa West 2mph /  3.2km/h 2mph /  3.2km/h 68% 0in /  0.0mm 0 W/m2
23:40 65.8 °F /  18.8 °C 55 °F /  12.8 °C 30.1in /  1019.6hPa NW 2.9mph /  4.7km/h 3mph /  4.8km/h 68% 0in /  0.0mm 0 W/m2
23:45 65.7 °F /  18.7 °C 54.9 °F /  12.7 °C 30.1in /  1019.6hPa SW 0.9mph /  1.4km/h 2mph /  3.2km/h 68% 0in /  0.0mm 0 W/m2
23:50 65.5 °F /  18.6 °C 55 °F /  12.8 °C 30.1in /  1019.6hPa SW 0.9mph /  1.4km/h 1mph /  1.6km/h 69% 0in /  0.0mm 0 W/m2
23:55 64.9 °F /  18.3 °C 54.9 °F /  12.7 °C 30.1in /  1019.6hPa ESE 0.9mph /  1.4km/h 4mph /  6.4km/h 70% 0in /  0.0mm 0 W/m2
Juneau County Weather
Compliments of Weather Underground - 4 mb